createdAt,value
2022-10-28T00:01:03.784Z,100835.53
2022-10-28T00:03:31.905Z,100997.97
2022-10-28T00:06:05.012Z,100925.91
2022-10-28T00:08:33.676Z,100870.38
2022-10-28T00:11:07.035Z,100959.03
2022-10-28T00:13:35.503Z,100853.97
2022-10-28T00:16:08.968Z,100985.94
2022-10-28T00:18:37.467Z,100984.72
2022-10-28T00:21:09.136Z,100809.00
2022-10-28T00:23:37.115Z,100939.03
2022-10-28T00:26:06.976Z,100879.63
2022-10-28T00:28:34.989Z,100816.44
2022-10-28T00:31:07.426Z,100970.59
2022-10-28T00:33:35.487Z,100821.41
2022-10-28T00:36:16.420Z,100966.31
2022-10-28T00:38:45.779Z,100918.03
2022-10-28T00:41:16.141Z,100751.09
2022-10-28T00:43:46.324Z,100960.41
2022-10-28T00:46:20.677Z,100916.38
2022-10-28T00:48:53.125Z,100907.94
2022-10-28T00:51:25.284Z,100958.31
2022-10-28T00:53:56.011Z,100960.22
2022-10-28T00:56:27.478Z,100868.31
2022-10-28T00:58:58.999Z,100859.53
2022-10-28T01:01:27.084Z,100937.38
2022-10-28T01:03:56.873Z,100928.56
2022-10-28T01:06:29.063Z,100856.88
2022-10-28T01:08:59.924Z,100846.84
2022-10-28T01:11:43.287Z,100973.91
2022-10-28T01:14:31.077Z,100823.69
2022-10-28T01:17:18.458Z,100905.09
2022-10-28T01:20:39.677Z,100866.72
2022-10-28T01:23:17.342Z,100844.38
2022-10-28T01:26:04.356Z,100955.00
2022-10-28T01:29:03.431Z,100946.41
2022-10-28T01:31:40.100Z,100954.31
2022-10-28T01:34:15.116Z,100941.25
2022-10-28T01:36:53.990Z,100840.91
2022-10-28T01:39:29.985Z,100896.63
2022-10-28T01:42:08.676Z,100950.63
2022-10-28T01:44:46.429Z,100760.91
2022-10-28T01:47:20.806Z,100843.31
2022-10-28T01:49:52.210Z,100934.25
2022-10-28T01:52:24.540Z,100832.13
2022-10-28T01:55:02.403Z,100835.91
2022-10-28T01:57:32.983Z,100887.41
2022-10-28T02:00:02.775Z,100829.41
2022-10-28T02:02:42.654Z,100832.56
2022-10-28T02:05:39.268Z,100919.59
2022-10-28T02:08:34.693Z,100910.94
2022-10-28T02:11:17.049Z,100909.03
2022-10-28T02:13:52.971Z,100917.63
2022-10-28T02:16:29.209Z,100730.53
2022-10-28T02:19:04.655Z,100859.97
2022-10-28T02:21:44.643Z,100777.31
2022-10-28T02:24:19.818Z,100895.28
2022-10-28T02:26:54.998Z,100880.09
2022-10-28T02:29:31.703Z,100852.66
2022-10-28T02:32:04.112Z,100867.75
2022-10-28T02:34:37.551Z,100765.44
2022-10-28T02:37:12.454Z,100779.56
2022-10-28T02:39:44.223Z,100862.75
2022-10-28T02:42:16.531Z,100882.28
2022-10-28T02:44:49.694Z,100883.84
2022-10-28T02:47:21.831Z,100814.50
2022-10-28T02:49:56.389Z,100714.72
2022-10-28T02:52:29.532Z,100693.16
2022-10-28T02:55:00.422Z,100855.41
2022-10-28T02:57:32.447Z,100778.97
2022-10-28T03:00:02.327Z,100934.84
2022-10-28T03:02:30.281Z,100960.22
2022-10-28T03:04:59.520Z,100961.25
2022-10-28T03:07:27.481Z,100767.69
2022-10-28T03:09:55.567Z,100865.81
2022-10-28T03:12:23.562Z,100932.72
2022-10-28T03:14:51.546Z,100794.06
2022-10-28T03:17:19.511Z,100937.56
2022-10-28T03:19:47.378Z,100889.41
2022-10-28T03:22:16.893Z,100739.34
2022-10-28T03:24:44.768Z,100836.38
2022-10-28T03:27:13.995Z,100806.34
2022-10-28T03:29:45.010Z,100868.75
2022-10-28T03:32:14.506Z,100857.72
2022-10-28T03:34:42.463Z,100870.13
2022-10-28T03:37:10.732Z,100819.81
2022-10-28T03:39:40.390Z,100802.47
2022-10-28T03:42:08.362Z,100893.69
2022-10-28T03:44:36.244Z,100890.59
2022-10-28T03:47:04.262Z,100891.19
2022-10-28T03:49:32.155Z,100898.81
2022-10-28T03:52:00.089Z,100857.03
2022-10-28T03:54:27.889Z,100867.31
2022-10-28T03:56:57.140Z,100830.44
2022-10-28T03:59:25.131Z,100790.47
2022-10-28T04:01:53.118Z,100887.31
2022-10-28T04:04:21.489Z,100793.47
2022-10-28T04:06:49.361Z,100778.09
2022-10-28T04:09:17.245Z,100815.25
2022-10-28T04:11:45.277Z,100878.59
2022-10-28T04:14:14.690Z,100844.75
2022-10-28T04:16:42.552Z,100858.19
2022-10-28T04:19:10.472Z,100852.31
2022-10-28T04:21:38.372Z,100867.22
2022-10-28T04:24:07.186Z,100875.13
2022-10-28T04:26:35.203Z,100697.50
2022-10-28T04:29:03.072Z,100867.41
2022-10-28T04:31:32.369Z,100861.88
2022-10-28T04:34:00.279Z,100832.63
2022-10-28T04:36:28.085Z,100868.78
2022-10-28T04:38:56.086Z,100865.63
2022-10-28T04:41:23.977Z,100850.88
2022-10-28T04:43:51.800Z,100823.88
2022-10-28T04:46:19.640Z,100871.66
2022-10-28T04:48:49.380Z,100853.78
2022-10-28T04:51:17.431Z,100871.72
2022-10-28T04:53:45.451Z,100791.09
2022-10-28T04:56:13.416Z,100745.94
2022-10-28T04:58:42.259Z,100851.03
2022-10-28T05:01:11.860Z,100857.38
2022-10-28T05:03:40.057Z,100807.47
2022-10-28T05:06:09.420Z,100827.63
2022-10-28T05:08:37.315Z,100732.38
2022-10-28T05:11:05.392Z,100848.91
2022-10-28T05:13:33.634Z,100849.41
2022-10-28T05:16:01.798Z,100909.06
2022-10-28T05:18:29.698Z,100818.97
2022-10-28T05:20:57.641Z,100918.00
2022-10-28T05:23:27.323Z,100866.47
2022-10-28T05:25:58.120Z,100654.09
2022-10-28T05:28:26.091Z,100874.28
2022-10-28T05:30:54.012Z,100834.97
2022-10-28T05:33:21.937Z,100887.88
2022-10-28T05:35:49.909Z,100879.34
2022-10-28T05:38:18.038Z,100878.81
2022-10-28T05:40:47.406Z,100844.72
2022-10-28T05:43:15.365Z,100777.44
2022-10-28T05:45:43.224Z,100886.88
2022-10-28T05:48:11.102Z,100882.56
2022-10-28T05:50:38.963Z,100863.28
2022-10-28T05:53:06.793Z,100866.72
2022-10-28T05:55:35.296Z,100841.09
2022-10-28T05:58:04.527Z,100858.34
2022-10-28T06:00:33.031Z,100847.44
2022-10-28T06:03:09.148Z,100886.97
2022-10-28T06:05:37.292Z,100876.03
2022-10-28T06:08:06.220Z,100754.38
2022-10-28T06:10:34.577Z,100871.75
2022-10-28T06:13:02.234Z,100889.88
2022-10-28T06:15:30.302Z,100873.94
2022-10-28T06:17:58.360Z,100836.00
2022-10-28T06:20:26.460Z,100846.16
2022-10-28T06:22:55.465Z,100895.59
2022-10-28T06:25:25.600Z,100892.91
2022-10-28T06:27:54.625Z,100895.38
2022-10-28T06:30:25.265Z,100875.38
2022-10-28T06:32:56.472Z,100910.72
2022-10-28T06:35:24.324Z,100677.91
2022-10-28T06:37:53.958Z,100870.22
2022-10-28T06:40:22.210Z,100747.13
2022-10-28T06:42:56.816Z,100908.47
2022-10-28T06:45:26.481Z,100759.16
2022-10-28T06:47:57.441Z,100922.63
2022-10-28T06:50:25.417Z,100881.56
2022-10-28T06:52:53.743Z,100835.66
2022-10-28T06:55:21.591Z,100814.34
2022-10-28T06:57:49.528Z,100918.22
2022-10-28T07:00:17.966Z,100853.25
2022-10-28T07:02:51.877Z,100887.66
2022-10-28T07:05:19.981Z,100808.19
2022-10-28T07:07:47.839Z,100863.31
2022-10-28T07:10:16.173Z,100835.13
2022-10-28T07:12:44.091Z,100809.97
2022-10-28T07:15:12.564Z,100855.56
2022-10-28T07:17:40.554Z,100886.44
2022-10-28T07:20:11.464Z,100856.75
2022-10-28T07:22:39.305Z,100843.69
2022-10-28T07:25:08.225Z,100795.59
2022-10-28T07:27:36.191Z,100941.56
2022-10-28T07:30:04.146Z,100925.56
2022-10-28T07:32:32.874Z,100922.78
2022-10-28T07:35:00.704Z,100834.84
2022-10-28T07:37:31.073Z,100945.56
2022-10-28T07:39:58.935Z,100866.94
2022-10-28T07:42:26.954Z,100873.06
2022-10-28T07:44:54.736Z,100760.47
2022-10-28T07:47:22.574Z,100801.19
2022-10-28T07:49:50.387Z,100935.03
2022-10-28T07:52:18.465Z,100904.50
2022-10-28T07:54:47.922Z,100935.97
2022-10-28T07:57:15.717Z,100850.63
2022-10-28T07:59:43.509Z,100902.06
2022-10-28T08:02:17.517Z,100945.16
2022-10-28T08:04:45.575Z,100842.53
2022-10-28T08:07:14.016Z,100904.25
2022-10-28T08:09:42.291Z,100930.03
2022-10-28T08:12:14.717Z,100832.53
2022-10-28T08:14:43.238Z,100942.47
2022-10-28T08:17:11.142Z,100877.09
2022-10-28T08:19:38.948Z,100876.84
2022-10-28T08:22:07.739Z,100897.16
2022-10-28T08:24:36.576Z,100935.66
2022-10-28T08:27:04.591Z,100933.38
2022-10-28T08:29:33.912Z,100933.19
2022-10-28T08:32:01.888Z,100953.00
2022-10-28T08:34:30.941Z,100764.63
2022-10-28T08:36:58.968Z,100771.13
2022-10-28T08:39:26.794Z,100698.91
2022-10-28T08:42:08.820Z,100680.91
2022-10-28T08:44:57.947Z,100801.13
2022-10-28T08:47:39.308Z,100922.63
2022-10-28T08:50:14.299Z,100839.13
2022-10-28T08:52:48.727Z,100883.06
2022-10-28T08:55:21.881Z,100826.03
2022-10-28T08:57:53.890Z,100890.69
2022-10-28T09:00:25.523Z,100802.69
2022-10-28T09:03:18.276Z,100897.16
2022-10-28T09:05:49.953Z,100760.78
2022-10-28T09:08:24.505Z,100895.38
2022-10-28T09:11:04.619Z,100767.56
2022-10-28T09:13:47.111Z,100657.25
2022-10-28T09:16:30.605Z,100861.53
2022-10-28T09:19:04.054Z,100829.13
2022-10-28T09:21:37.656Z,100883.50
2022-10-28T09:24:18.571Z,100872.28
2022-10-28T09:26:55.445Z,100882.13
2022-10-28T09:29:54.890Z,100887.84
2022-10-28T09:32:35.131Z,100867.53
2022-10-28T09:35:07.344Z,100895.56
2022-10-28T09:37:40.923Z,100620.94
2022-10-28T09:40:18.550Z,100891.41
2022-10-28T09:42:56.173Z,100816.84
2022-10-28T09:45:32.521Z,100896.00
2022-10-28T09:48:09.730Z,100889.41
2022-10-28T09:50:40.627Z,100894.50
2022-10-28T09:53:20.567Z,100894.72
2022-10-28T09:55:55.937Z,100869.59
2022-10-28T09:58:30.006Z,100766.91
2022-10-28T10:01:00.420Z,100907.66
2022-10-28T10:03:32.973Z,100685.22
2022-10-28T10:06:15.189Z,100757.81
2022-10-28T10:08:44.608Z,100908.03
2022-10-28T10:11:23.388Z,100701.03
2022-10-28T10:13:52.707Z,100905.91
2022-10-28T10:16:26.100Z,100907.31
2022-10-28T10:19:01.894Z,100900.72
2022-10-28T10:21:45.621Z,100897.16
2022-10-28T10:24:27.091Z,100824.78
2022-10-28T10:26:55.470Z,100786.88
2022-10-28T10:29:23.642Z,100906.13
2022-10-28T10:32:09.834Z,100887.66
2022-10-28T10:34:39.149Z,100890.41
2022-10-28T10:37:17.444Z,100885.41
2022-10-28T10:39:45.209Z,100697.44
2022-10-28T10:42:17.971Z,100888.72
2022-10-28T10:44:46.246Z,100879.31
2022-10-28T10:47:20.867Z,100696.25
2022-10-28T10:50:22.968Z,100879.75
2022-10-28T10:52:53.806Z,100852.13
2022-10-28T10:55:30.465Z,100720.88
2022-10-28T10:57:58.891Z,100649.84
2022-10-28T11:00:32.119Z,100875.72
2022-10-28T11:03:01.956Z,100880.28
2022-10-28T11:05:35.913Z,100875.63
2022-10-28T11:08:07.731Z,100846.75
2022-10-28T11:10:36.356Z,100869.94
2022-10-28T11:13:26.602Z,100861.75
2022-10-28T11:16:00.687Z,100789.88
2022-10-28T11:18:31.650Z,100819.25
2022-10-28T11:21:08.510Z,100860.13
2022-10-28T11:23:50.192Z,100850.97
2022-10-28T11:26:20.512Z,100845.81
2022-10-28T11:29:10.883Z,100831.69
2022-10-28T11:31:57.665Z,100822.75
2022-10-28T11:34:41.621Z,100829.72
2022-10-28T11:37:19.891Z,100771.81
2022-10-28T11:39:59.390Z,100815.75
2022-10-28T11:42:39.051Z,100816.31
2022-10-28T11:45:14.520Z,100805.66
2022-10-28T11:47:57.119Z,100805.78
2022-10-28T11:50:36.609Z,100814.31
2022-10-28T11:53:28.832Z,100800.16
2022-10-28T11:56:04.664Z,100732.19
2022-10-28T11:58:42.157Z,100811.50
2022-10-28T12:01:29.799Z,100777.97
2022-10-28T12:04:13.348Z,100765.22
2022-10-28T12:07:01.441Z,100810.94
2022-10-28T12:09:45.698Z,100776.56
2022-10-28T12:12:24.413Z,100798.94
2022-10-28T12:15:01.592Z,100795.78
2022-10-28T12:17:38.247Z,100742.59
2022-10-28T12:20:15.897Z,100795.66
2022-10-28T12:22:49.122Z,100793.78
2022-10-28T12:25:24.292Z,100803.16
2022-10-28T12:27:55.644Z,100792.94
2022-10-28T12:30:27.350Z,100755.88
2022-10-28T12:33:00.200Z,100758.69
2022-10-28T12:35:33.166Z,100745.16
2022-10-28T12:38:07.503Z,100780.88
2022-10-28T12:40:42.588Z,100773.13
2022-10-28T12:43:17.131Z,100784.59
2022-10-28T12:45:49.272Z,100790.94
2022-10-28T12:48:23.682Z,100636.41
2022-10-28T12:51:00.083Z,100603.75
2022-10-28T12:53:35.556Z,100596.19
2022-10-28T12:56:13.207Z,100579.53
2022-10-28T12:58:52.277Z,100727.84
2022-10-28T13:01:24.340Z,100639.19
2022-10-28T13:03:52.843Z,100785.53
2022-10-28T13:06:48.688Z,100572.03
2022-10-28T13:09:39.156Z,100748.16
2022-10-28T13:12:50.551Z,100797.69
2022-10-28T13:15:40.249Z,100700.97
2022-10-28T13:18:38.212Z,100761.69
2022-10-28T13:21:17.812Z,100634.31
2022-10-28T13:23:55.686Z,100719.41
2022-10-28T13:26:29.675Z,100559.81
2022-10-28T13:29:00.848Z,100608.69
2022-10-28T13:31:41.125Z,100715.53
2022-10-28T13:34:10.558Z,100475.13
2022-10-28T13:36:42.827Z,100601.81
2022-10-28T13:39:24.562Z,100564.97
2022-10-28T13:42:25.607Z,100802.88
2022-10-28T13:44:55.370Z,100591.25
2022-10-28T13:47:34.445Z,100790.09
2022-10-28T13:50:42.117Z,100792.06
2022-10-28T13:53:55.289Z,100728.81
2022-10-28T13:56:42.472Z,100788.84
2022-10-28T13:59:22.639Z,100631.66
2022-10-28T14:02:28.476Z,100795.19
2022-10-28T14:04:58.656Z,100734.31
2022-10-28T14:07:30.205Z,100581.19
2022-10-28T14:10:17.614Z,100437.88
2022-10-28T14:12:51.724Z,100573.19
2022-10-28T14:15:24.294Z,100592.34
2022-10-28T14:18:00.994Z,100714.72
2022-10-28T14:20:54.851Z,100672.06
2022-10-28T14:24:16.600Z,100812.59
2022-10-28T14:27:30.758Z,100806.31
2022-10-28T14:30:24.167Z,100809.34
2022-10-28T14:33:04.111Z,100674.56
2022-10-28T14:35:40.243Z,100818.44
2022-10-28T14:38:42.039Z,100824.03
2022-10-28T14:41:35.580Z,100672.56
2022-10-28T14:44:17.348Z,100593.28
2022-10-28T14:46:57.294Z,100709.75
2022-10-28T14:49:27.343Z,100696.03
2022-10-28T14:51:56.074Z,100829.28
2022-10-28T14:54:39.792Z,100851.63
2022-10-28T14:57:11.394Z,100783.53
2022-10-28T14:59:43.200Z,100483.19
2022-10-28T15:02:17.559Z,100844.16
2022-10-28T15:04:48.414Z,100677.38
2022-10-28T15:07:19.325Z,100790.03
2022-10-28T15:09:53.455Z,100686.47
2022-10-28T15:12:26.664Z,100713.88
2022-10-28T15:14:56.448Z,100678.03
2022-10-28T15:17:26.363Z,100878.72
2022-10-28T15:19:56.073Z,100599.19
2022-10-28T15:22:25.785Z,100724.44
2022-10-28T15:24:59.256Z,100736.78
2022-10-28T15:27:30.470Z,100910.06
2022-10-28T15:29:58.589Z,100736.78
2022-10-28T15:32:29.653Z,100922.59
2022-10-28T15:34:57.714Z,100604.34
2022-10-28T15:37:27.932Z,100909.19
2022-10-28T15:40:13.717Z,100929.97
2022-10-28T15:42:51.362Z,100688.09
2022-10-28T15:45:25.583Z,100428.63
2022-10-28T15:47:55.342Z,100662.44
2022-10-28T15:50:32.995Z,100935.81
2022-10-28T15:53:37.722Z,100942.28
2022-10-28T15:56:17.639Z,100877.19
2022-10-28T15:58:49.993Z,100950.75
2022-10-28T16:01:37.978Z,100935.72
2022-10-28T16:04:06.706Z,100960.50
2022-10-28T16:06:37.243Z,100972.34
2022-10-28T16:09:18.206Z,100876.09
2022-10-28T16:11:49.305Z,100806.47
2022-10-28T16:14:36.827Z,100996.94
2022-10-28T16:19:38.744Z,100987.72
2022-10-28T16:22:07.509Z,100892.50
2022-10-28T16:24:35.660Z,100869.00
2022-10-28T16:27:22.942Z,100989.38
2022-10-28T16:29:52.765Z,100906.66
2022-10-28T16:32:27.690Z,100795.34
2022-10-28T16:34:56.994Z,100904.56
2022-10-28T16:37:27.583Z,100919.09
2022-10-28T16:39:57.670Z,100907.28
2022-10-28T16:42:26.177Z,100999.50
2022-10-28T16:44:55.454Z,100995.28
2022-10-28T16:47:26.598Z,100765.38
2022-10-28T16:49:57.362Z,100929.22
2022-10-28T16:52:27.511Z,101014.16
2022-10-28T16:54:55.753Z,100836.06
2022-10-28T16:59:52.158Z,100962.28
2022-10-28T17:02:25.449Z,101013.84
2022-10-28T17:04:53.601Z,100926.47
2022-10-28T17:07:21.507Z,100910.31
2022-10-28T17:09:49.390Z,100936.59
2022-10-28T17:12:19.230Z,100855.84
2022-10-28T17:14:47.318Z,100721.66
2022-10-28T17:17:16.089Z,100949.88
2022-10-28T17:19:46.477Z,100940.75
2022-10-28T17:22:15.173Z,101020.25
2022-10-28T17:24:43.110Z,100764.41
2022-10-28T17:27:10.915Z,101016.50
2022-10-28T17:29:38.939Z,100796.13
2022-10-28T17:32:08.572Z,101011.94
2022-10-28T17:34:36.579Z,100564.59
2022-10-28T17:37:06.034Z,100960.28
2022-10-28T17:39:34.083Z,100898.00
2022-10-28T17:42:01.928Z,100875.00
2022-10-28T17:44:29.750Z,100950.22
2022-10-28T17:46:58.366Z,100388.69
2022-10-28T17:49:26.406Z,100733.44
2022-10-28T17:51:54.676Z,100950.06
2022-10-28T17:56:51.926Z,100771.03
2022-10-28T17:59:19.849Z,100945.56
2022-10-28T18:01:47.804Z,101035.66
2022-10-28T18:04:15.858Z,100931.16
2022-10-28T18:06:43.879Z,101012.59
2022-10-28T18:09:12.728Z,100686.25
2022-10-28T18:11:42.048Z,100942.94
2022-10-28T18:14:09.869Z,100819.56
2022-10-28T18:16:38.437Z,100588.81
2022-10-28T18:19:07.711Z,101049.97
2022-10-28T18:21:36.112Z,100867.16
2022-10-28T18:24:07.196Z,100830.56
2022-10-28T18:26:36.763Z,100954.47
2022-10-28T18:29:09.881Z,101055.47
2022-10-28T18:31:40.510Z,100777.44
2022-10-28T18:34:09.493Z,100909.44
2022-10-28T18:36:37.912Z,101057.00
2022-10-28T18:39:07.785Z,100954.28
2022-10-28T18:41:38.327Z,101000.00
2022-10-28T18:44:07.577Z,101065.63
2022-10-28T18:46:37.513Z,100989.38
2022-10-28T18:49:06.228Z,101057.34
2022-10-28T18:51:35.180Z,101062.72
2022-10-28T18:54:03.547Z,100983.41
2022-10-28T18:56:31.662Z,101045.59
2022-10-28T18:58:59.984Z,100952.31
2022-10-28T19:01:31.603Z,101068.53
2022-10-28T19:04:01.598Z,100889.25
2022-10-28T19:06:32.434Z,101067.66
2022-10-28T19:09:02.610Z,100820.41
2022-10-28T19:11:31.679Z,100874.16
2022-10-28T19:14:00.474Z,101024.00
2022-10-28T19:16:31.881Z,100979.59
2022-10-28T19:19:02.482Z,100906.56
2022-10-28T19:21:30.438Z,101078.22
2022-10-28T19:23:58.276Z,101067.09
2022-10-28T19:26:26.192Z,101010.28
2022-10-28T19:28:54.170Z,100896.88
2022-10-28T19:31:24.891Z,101076.84
2022-10-28T19:33:55.163Z,100913.31
2022-10-28T19:36:25.015Z,100800.88
2022-10-28T19:38:54.364Z,101029.56
2022-10-28T19:41:24.488Z,101088.81
2022-10-28T19:43:57.842Z,100997.47
2022-10-28T19:46:27.710Z,101088.25
2022-10-28T19:48:59.529Z,101092.56
2022-10-28T19:51:29.330Z,101004.44
2022-10-28T19:53:58.593Z,101031.22
2022-10-28T19:56:27.416Z,101102.47
2022-10-28T19:58:57.760Z,100804.88
2022-10-28T20:01:28.735Z,101064.50
2022-10-28T20:03:58.228Z,100959.59
2022-10-28T20:06:27.991Z,100943.69
2022-10-28T20:08:55.829Z,101137.00
2022-10-28T20:11:26.604Z,101124.00
2022-10-28T20:13:55.275Z,101049.56
2022-10-28T20:16:23.788Z,101142.44
2022-10-28T20:18:51.776Z,100927.31
2022-10-28T20:21:22.939Z,101062.66
2022-10-28T20:23:54.572Z,101150.56
2022-10-28T20:26:24.473Z,100901.47
2022-10-28T20:28:52.679Z,100944.66
2022-10-28T20:31:22.362Z,101095.31
2022-10-28T20:33:52.788Z,101011.56
2022-10-28T20:36:25.513Z,100983.19
2022-10-28T20:38:57.590Z,101184.38
2022-10-28T20:41:26.604Z,101184.53
2022-10-28T20:43:55.437Z,101207.16
2022-10-28T20:46:25.614Z,101185.69
2022-10-28T20:48:54.596Z,101088.34
2022-10-28T20:51:25.714Z,101113.59
2022-10-28T20:53:54.539Z,101117.88
2022-10-28T20:56:24.387Z,101198.84
2022-10-28T20:58:53.041Z,101199.81
2022-10-28T21:01:22.995Z,101099.09
2022-10-28T21:03:54.877Z,100912.50
2022-10-28T21:06:25.614Z,101155.19
2022-10-28T21:08:54.570Z,101114.75
2022-10-28T21:11:23.899Z,101007.75
2022-10-28T21:13:53.545Z,101208.13
2022-10-28T21:16:22.905Z,101015.19
2022-10-28T21:18:51.610Z,101008.66
2022-10-28T21:21:20.271Z,101139.19
2022-10-28T21:23:49.881Z,101045.22
2022-10-28T21:26:18.038Z,101024.09
2022-10-28T21:28:49.873Z,101213.84
2022-10-28T21:31:18.785Z,101205.34
2022-10-28T21:33:47.465Z,101205.50
2022-10-28T21:36:17.282Z,101196.25
2022-10-28T21:38:46.184Z,101027.31
2022-10-28T21:41:17.140Z,100980.06
2022-10-28T21:43:47.673Z,101010.41
2022-10-28T21:46:16.093Z,101208.38
2022-10-28T21:48:46.770Z,101203.22
2022-10-28T21:51:16.946Z,101199.00
2022-10-28T21:53:45.785Z,101198.25
2022-10-28T21:56:18.776Z,101200.84
2022-10-28T21:58:49.061Z,100950.66
2022-10-28T22:01:19.008Z,100987.78
2022-10-28T22:03:46.907Z,101202.72
2022-10-28T22:06:15.240Z,101199.53
2022-10-28T22:08:43.143Z,101198.06
2022-10-28T22:11:13.607Z,100976.41
2022-10-28T22:13:43.087Z,100969.09
2022-10-28T22:16:15.359Z,100963.25
2022-10-28T22:18:44.535Z,101145.53
2022-10-28T22:21:14.907Z,101197.97
2022-10-28T22:23:43.452Z,101116.56
2022-10-28T22:26:13.739Z,101103.13
2022-10-28T22:28:43.654Z,100997.88
2022-10-28T22:31:13.471Z,100992.13
2022-10-28T22:33:41.544Z,101209.13
2022-10-28T22:36:13.295Z,100914.13
2022-10-28T22:38:41.890Z,101069.72
2022-10-28T22:41:14.288Z,101210.47
2022-10-28T22:43:45.118Z,101100.50
2022-10-28T22:46:14.888Z,101155.69
2022-10-28T22:48:42.736Z,101177.06
2022-10-28T22:51:11.181Z,101208.88
2022-10-28T22:53:39.848Z,101130.47
2022-10-28T22:56:09.443Z,101152.28
2022-10-28T22:58:37.551Z,100891.28
2022-10-28T23:01:07.939Z,101059.97
2022-10-28T23:03:37.000Z,100893.03
2022-10-28T23:06:05.479Z,101197.09
2022-10-28T23:08:33.705Z,101164.69
2022-10-28T23:11:01.702Z,101198.13
2022-10-28T23:13:29.570Z,101199.09
2022-10-28T23:15:57.459Z,101186.72
2022-10-28T23:18:28.910Z,100882.34
2022-10-28T23:20:56.750Z,101209.88
2022-10-28T23:23:24.715Z,101209.09
2022-10-28T23:25:53.629Z,101204.06
2022-10-28T23:28:21.795Z,101128.09
2022-10-28T23:30:49.655Z,101210.44
2022-10-28T23:33:17.540Z,101144.00
2022-10-28T23:35:54.995Z,101020.06
2022-10-28T23:38:23.015Z,100975.81
2022-10-28T23:40:58.386Z,101216.91
2022-10-28T23:43:26.879Z,101225.59
2022-10-28T23:45:55.815Z,101212.63
2022-10-28T23:48:24.254Z,101213.47
2022-10-28T23:50:53.878Z,101166.78
2022-10-28T23:53:22.707Z,101110.28
2022-10-28T23:55:51.607Z,101200.41
2022-10-28T23:58:20.958Z,101044.50
